sensor_id;sensor_type;location;lat;lon;timestamp;pressure;altitude;pressure_sealevel;temperature
37452;BMP280;23314;51.114;6.900;2023-10-13T00:02:07;101037.28;;;19.11
37452;BMP280;23314;51.114;6.900;2023-10-13T00:04:33;101034.31;;;19.08
37452;BMP280;23314;51.114;6.900;2023-10-13T00:07:01;101025.88;;;19.06
37452;BMP280;23314;51.114;6.900;2023-10-13T00:09:28;101035.97;;;19.06
37452;BMP280;23314;51.114;6.900;2023-10-13T00:12:05;101034.91;;;19.03
37452;BMP280;23314;51.114;6.900;2023-10-13T00:14:35;101025.31;;;19.02
37452;BMP280;23314;51.114;6.900;2023-10-13T00:17:01;101038.06;;;19.02
37452;BMP280;23314;51.114;6.900;2023-10-13T00:22:07;101027.72;;;19.00
37452;BMP280;23314;51.114;6.900;2023-10-13T00:24:40;101012.69;;;18.99
37452;BMP280;23314;51.114;6.900;2023-10-13T00:27:15;101005.78;;;18.98
37452;BMP280;23314;51.114;6.900;2023-10-13T00:30:10;101004.94;;;18.92
37452;BMP280;23314;51.114;6.900;2023-10-13T00:32:52;101006.13;;;18.91
37452;BMP280;23314;51.114;6.900;2023-10-13T00:35:24;101009.56;;;18.91
37452;BMP280;23314;51.114;6.900;2023-10-13T00:37:54;101008.09;;;18.90
37452;BMP280;23314;51.114;6.900;2023-10-13T00:40:23;100995.31;;;18.91
37452;BMP280;23314;51.114;6.900;2023-10-13T00:42:55;101000.72;;;18.91
37452;BMP280;23314;51.114;6.900;2023-10-13T00:45:21;100997.28;;;18.90
37452;BMP280;23314;51.114;6.900;2023-10-13T00:47:47;100998.00;;;18.91
37452;BMP280;23314;51.114;6.900;2023-10-13T00:50:21;100996.06;;;18.91
37452;BMP280;23314;51.114;6.900;2023-10-13T00:52:49;101000.56;;;18.95
37452;BMP280;23314;51.114;6.900;2023-10-13T00:55:17;100990.78;;;18.97
37452;BMP280;23314;51.114;6.900;2023-10-13T00:57:43;100983.72;;;19.00
37452;BMP280;23314;51.114;6.900;2023-10-13T01:00:12;100989.41;;;19.02
37452;BMP280;23314;51.114;6.900;2023-10-13T01:02:57;100974.22;;;19.04
37452;BMP280;23314;51.114;6.900;2023-10-13T01:05:30;100977.22;;;19.06
37452;BMP280;23314;51.114;6.900;2023-10-13T01:08:00;100968.66;;;19.08
37452;BMP280;23314;51.114;6.900;2023-10-13T01:10:26;100973.88;;;19.12
37452;BMP280;23314;51.114;6.900;2023-10-13T01:12:54;100961.41;;;19.14
37452;BMP280;23314;51.114;6.900;2023-10-13T01:15:19;100964.38;;;19.16
37452;BMP280;23314;51.114;6.900;2023-10-13T01:17:48;100964.38;;;19.16
37452;BMP280;23314;51.114;6.900;2023-10-13T01:20:16;100952.38;;;19.17
37452;BMP280;23314;51.114;6.900;2023-10-13T01:22:50;100949.22;;;19.19
37452;BMP280;23314;51.114;6.900;2023-10-13T01:25:24;100949.03;;;19.22
37452;BMP280;23314;51.114;6.900;2023-10-13T01:27:52;100940.75;;;19.26
37452;BMP280;23314;51.114;6.900;2023-10-13T01:30:18;100942.72;;;19.25
37452;BMP280;23314;51.114;6.900;2023-10-13T01:32:49;100930.69;;;19.26
37452;BMP280;23314;51.114;6.900;2023-10-13T01:35:16;100926.00;;;19.27
37452;BMP280;23314;51.114;6.900;2023-10-13T01:37:44;100932.47;;;19.30
37452;BMP280;23314;51.114;6.900;2023-10-13T01:40:10;100933.19;;;19.30
37452;BMP280;23314;51.114;6.900;2023-10-13T01:42:36;100927.34;;;19.32
37452;BMP280;23314;51.114;6.900;2023-10-13T01:45:02;100926.84;;;19.33
37452;BMP280;23314;51.114;6.900;2023-10-13T01:47:33;100920.56;;;19.36
37452;BMP280;23314;51.114;6.900;2023-10-13T01:49:59;100920.06;;;19.38
37452;BMP280;23314;51.114;6.900;2023-10-13T01:52:38;100911.22;;;19.37
37452;BMP280;23314;51.114;6.900;2023-10-13T01:55:03;100909.22;;;19.38
37452;BMP280;23314;51.114;6.900;2023-10-13T01:57:31;100903.81;;;19.38
37452;BMP280;23314;51.114;6.900;2023-10-13T01:59:57;100904.59;;;19.38
37452;BMP280;23314;51.114;6.900;2023-10-13T02:02:28;100896.47;;;19.38
37452;BMP280;23314;51.114;6.900;2023-10-13T02:04:54;100883.69;;;19.39
37452;BMP280;23314;51.114;6.900;2023-10-13T02:07:25;100885.66;;;19.38
37452;BMP280;23314;51.114;6.900;2023-10-13T02:09:57;100879.47;;;19.38
37452;BMP280;23314;51.114;6.900;2023-10-13T02:12:23;100878.78;;;19.37
37452;BMP280;23314;51.114;6.900;2023-10-13T02:15:01;100884.19;;;19.37
37452;BMP280;23314;51.114;6.900;2023-10-13T02:17:30;100875.31;;;19.37
37452;BMP280;23314;51.114;6.900;2023-10-13T02:20:06;100882.19;;;19.38
37452;BMP280;23314;51.114;6.900;2023-10-13T02:22:33;100868.94;;;19.40
37452;BMP280;23314;51.114;6.900;2023-10-13T02:24:59;100871.97;;;19.42
37452;BMP280;23314;51.114;6.900;2023-10-13T02:27:34;100862.63;;;19.43
37452;BMP280;23314;51.114;6.900;2023-10-13T02:30:07;100855.72;;;19.42
37452;BMP280;23314;51.114;6.900;2023-10-13T02:32:38;100852.56;;;19.43
37452;BMP280;23314;51.114;6.900;2023-10-13T02:35:06;100855.25;;;19.43
37452;BMP280;23314;51.114;6.900;2023-10-13T02:37:34;100851.78;;;19.43
37452;BMP280;23314;51.114;6.900;2023-10-13T02:40:01;100847.63;;;19.42
37452;BMP280;23314;51.114;6.900;2023-10-13T02:42:26;100844.16;;;19.41
37452;BMP280;23314;51.114;6.900;2023-10-13T02:44:51;100834.56;;;19.40
37452;BMP280;23314;51.114;6.900;2023-10-13T02:47:21;100825.69;;;19.40
37452;BMP280;23314;51.114;6.900;2023-10-13T02:49:48;100831.09;;;19.40
37452;BMP280;23314;51.114;6.900;2023-10-13T02:52:14;100830.34;;;19.39
37452;BMP280;23314;51.114;6.900;2023-10-13T02:54:40;100830.34;;;19.39
37452;BMP280;23314;51.114;6.900;2023-10-13T02:57:15;100823.72;;;19.40
37452;BMP280;23314;51.114;6.900;2023-10-13T02:59:41;100822.97;;;19.40
37452;BMP280;23314;51.114;6.900;2023-10-13T03:02:21;100823.44;;;19.38
37452;BMP280;23314;51.114;6.900;2023-10-13T03:04:51;100822.22;;;19.39
37452;BMP280;23314;51.114;6.900;2023-10-13T03:07:17;100816.81;;;19.39
37452;BMP280;23314;51.114;6.900;2023-10-13T03:09:50;100812.16;;;19.40
37452;BMP280;23314;51.114;6.900;2023-10-13T03:12:19;100800.59;;;19.39
37452;BMP280;23314;51.114;6.900;2023-10-13T03:14:44;100807.94;;;19.39
37452;BMP280;23314;51.114;6.900;2023-10-13T03:17:13;100801.03;;;19.38
37452;BMP280;23314;51.114;6.900;2023-10-13T03:19:44;100797.31;;;19.35
37452;BMP280;23314;51.114;6.900;2023-10-13T03:22:15;100794.31;;;19.33
37452;BMP280;23314;51.114;6.900;2023-10-13T03:24:42;100782.03;;;19.32
37452;BMP280;23314;51.114;6.900;2023-10-13T03:27:18;100775.59;;;19.30
37452;BMP280;23314;51.114;6.900;2023-10-13T03:29:48;100773.81;;;19.26
37452;BMP280;23314;51.114;6.900;2023-10-13T03:32:19;100770.06;;;19.24
37452;BMP280;23314;51.114;6.900;2023-10-13T03:34:46;100767.06;;;19.22
37452;BMP280;23314;51.114;6.900;2023-10-13T03:37:32;100760.63;;;19.19
37452;BMP280;23314;51.114;6.900;2023-10-13T03:40:05;100759.16;;;19.18
37452;BMP280;23314;51.114;6.900;2023-10-13T03:42:32;100748.06;;;19.16
37452;BMP280;23314;51.114;6.900;2023-10-13T03:44:57;100745.81;;;19.15
37452;BMP280;23314;51.114;6.900;2023-10-13T03:47:22;100749.75;;;19.14
37452;BMP280;23314;51.114;6.900;2023-10-13T03:49:57;100742.09;;;19.12
37452;BMP280;23314;51.114;6.900;2023-10-13T03:52:41;100745.75;;;19.09
37452;BMP280;23314;51.114;6.900;2023-10-13T03:55:06;100735.38;;;19.07
37452;BMP280;23314;51.114;6.900;2023-10-13T03:57:32;100731.94;;;19.07
37452;BMP280;23314;51.114;6.900;2023-10-13T04:00:04;100724.25;;;19.05
37452;BMP280;23314;51.114;6.900;2023-10-13T04:02:45;100726.22;;;19.05
37452;BMP280;23314;51.114;6.900;2023-10-13T04:05:17;100722.06;;;19.04
37452;BMP280;23314;51.114;6.900;2023-10-13T04:08:05;100721.56;;;19.05
37452;BMP280;23314;51.114;6.900;2023-10-13T04:10:55;100720.09;;;19.04
37452;BMP280;23314;51.114;6.900;2023-10-13T04:13:20;100722.78;;;19.04
37452;BMP280;23314;51.114;6.900;2023-10-13T04:16:07;100718.59;;;19.03
37452;BMP280;23314;51.114;6.900;2023-10-13T04:18:44;100722.06;;;19.04
37452;BMP280;23314;51.114;6.900;2023-10-13T04:21:25;100726.22;;;19.05
37452;BMP280;23314;51.114;6.900;2023-10-13T04:24:21;100722.31;;;19.06
37452;BMP280;23314;51.114;6.900;2023-10-13T04:27:05;100714.50;;;19.08
37452;BMP280;23314;51.114;6.900;2023-10-13T04:29:39;100719.44;;;19.09
37452;BMP280;23314;51.114;6.900;2023-10-13T04:32:15;100707.69;;;19.13
37452;BMP280;23314;51.114;6.900;2023-10-13T04:34:43;100702.84;;;19.17
37452;BMP280;23314;51.114;6.900;2023-10-13T04:37:12;100694.72;;;19.17
37452;BMP280;23314;51.114;6.900;2023-10-13T04:39:58;100684.22;;;19.19
37452;BMP280;23314;51.114;6.900;2023-10-13T04:42:35;100683.44;;;19.18
37452;BMP280;23314;51.114;6.900;2023-10-13T04:45:19;100672.34;;;19.16
37452;BMP280;23314;51.114;6.900;2023-10-13T04:47:54;100677.75;;;19.16
37452;BMP280;23314;51.114;6.900;2023-10-13T04:50:47;100672.81;;;19.15
37452;BMP280;23314;51.114;6.900;2023-10-13T04:53:16;100664.69;;;19.15
37452;BMP280;23314;51.114;6.900;2023-10-13T04:56:02;100662.28;;;19.17
37452;BMP280;23314;51.114;6.900;2023-10-13T04:58:33;100657.31;;;19.15
37452;BMP280;23314;51.114;6.900;2023-10-13T05:00:59;100657.63;;;19.17
37452;BMP280;23314;51.114;6.900;2023-10-13T05:03:51;100650.72;;;19.16
37452;BMP280;23314;51.114;6.900;2023-10-13T05:06:20;100659.13;;;19.18
37452;BMP280;23314;51.114;6.900;2023-10-13T05:09:04;100655.19;;;19.19
37452;BMP280;23314;51.114;6.900;2023-10-13T05:11:48;100658.91;;;19.22
37452;BMP280;23314;51.114;6.900;2023-10-13T05:14:32;100652.28;;;19.23
37452;BMP280;23314;51.114;6.900;2023-10-13T05:17:15;100658.72;;;19.25
37452;BMP280;23314;51.114;6.900;2023-10-13T05:19:59;100647.91;;;19.25
37452;BMP280;23314;51.114;6.900;2023-10-13T05:22:43;100654.34;;;19.28
37452;BMP280;23314;51.114;6.900;2023-10-13T05:25:27;100660.78;;;19.31
37452;BMP280;23314;51.114;6.900;2023-10-13T05:28:11;100651.47;;;19.32
37452;BMP280;23314;51.114;6.900;2023-10-13T05:30:59;100642.59;;;19.31
37452;BMP280;23314;51.114;6.900;2023-10-13T05:33:42;100650.69;;;19.31
37452;BMP280;23314;51.114;6.900;2023-10-13T05:36:26;100649.50;;;19.32
37452;BMP280;23314;51.114;6.900;2023-10-13T05:39:10;100647.56;;;19.33
37452;BMP280;23314;51.114;6.900;2023-10-13T05:41:54;100656.66;;;19.35
37452;BMP280;23314;51.114;6.900;2023-10-13T05:44:38;100660.38;;;19.38
37452;BMP280;23314;51.114;6.900;2023-10-13T05:47:20;100670.28;;;19.41
37452;BMP280;23314;51.114;6.900;2023-10-13T05:50:05;100673.25;;;19.43
37452;BMP280;23314;51.114;6.900;2023-10-13T05:52:47;100677.00;;;19.46
37452;BMP280;23314;51.114;6.900;2023-10-13T05:55:29;100676.78;;;19.49
37452;BMP280;23314;51.114;6.900;2023-10-13T05:58:13;100668.94;;;19.51
37452;BMP280;23314;51.114;6.900;2023-10-13T06:00:57;100679.28;;;19.53
37452;BMP280;23314;51.114;6.900;2023-10-13T06:03:41;100677.34;;;19.53
37452;BMP280;23314;51.114;6.900;2023-10-13T06:06:25;100676.41;;;19.56
37452;BMP280;23314;51.114;6.900;2023-10-13T06:09:09;100680.13;;;19.59
37452;BMP280;23314;51.114;6.900;2023-10-13T06:11:53;100674.72;;;19.59
37452;BMP280;23314;51.114;6.900;2023-10-13T06:14:37;100679.19;;;19.62
37452;BMP280;23314;51.114;6.900;2023-10-13T06:17:21;100676.78;;;19.64
37452;BMP280;23314;51.114;6.900;2023-10-13T06:20:06;100674.34;;;19.66
37452;BMP280;23314;51.114;6.900;2023-10-13T06:22:50;100671.91;;;19.68
37452;BMP280;23314;51.114;6.900;2023-10-13T06:25:34;100669.44;;;19.70
37452;BMP280;23314;51.114;6.900;2023-10-13T06:28:18;100654.25;;;19.73
37452;BMP280;23314;51.114;6.900;2023-10-13T06:31:04;100654.50;;;19.75
37452;BMP280;23314;51.114;6.900;2023-10-13T06:33:31;100656.75;;;19.76
37452;BMP280;23314;51.114;6.900;2023-10-13T06:36:02;100648.44;;;19.80
37452;BMP280;23314;51.114;6.900;2023-10-13T06:38:29;100637.13;;;19.82
37452;BMP280;23314;51.114;6.900;2023-10-13T06:41:05;100637.69;;;19.86
37452;BMP280;23314;51.114;6.900;2023-10-13T06:43:37;100641.38;;;19.88
37452;BMP280;23314;51.114;6.900;2023-10-13T06:46:09;100619.28;;;19.90
37452;BMP280;23314;51.114;6.900;2023-10-13T06:48:42;100591.91;;;19.88
37452;BMP280;23314;51.114;6.900;2023-10-13T06:51:08;100579.63;;;19.87
37452;BMP280;23314;51.114;6.900;2023-10-13T06:53:44;100572.44;;;19.84
37452;BMP280;23314;51.114;6.900;2023-10-13T06:56:15;100560.41;;;19.85
37452;BMP280;23314;51.114;6.900;2023-10-13T06:58:48;100575.88;;;19.84
37452;BMP280;23314;51.114;6.900;2023-10-13T07:01:14;100592.41;;;19.86
37452;BMP280;23314;51.114;6.900;2023-10-13T07:03:47;100586.03;;;19.89
37452;BMP280;23314;51.114;6.900;2023-10-13T07:06:22;100589.81;;;19.98
37452;BMP280;23314;51.114;6.900;2023-10-13T07:08:48;100593.81;;;20.02
37452;BMP280;23314;51.114;6.900;2023-10-13T07:11:27;100590.88;;;20.06
37452;BMP280;23314;51.114;6.900;2023-10-13T07:14:04;100597.59;;;20.10
37452;BMP280;23314;51.114;6.900;2023-10-13T07:17:03;100585.31;;;20.15
37452;BMP280;23314;51.114;6.900;2023-10-13T07:19:30;100587.81;;;20.19
37452;BMP280;23314;51.114;6.900;2023-10-13T07:21:56;100585.19;;;20.24
37452;BMP280;23314;51.114;6.900;2023-10-13T07:24:28;100583.25;;;20.30
37452;BMP280;23314;51.114;6.900;2023-10-13T07:26:58;100583.06;;;20.34
37452;BMP280;23314;51.114;6.900;2023-10-13T07:29:28;100578.91;;;20.39
37452;BMP280;23314;51.114;6.900;2023-10-13T07:31:53;100584.09;;;20.42
37452;BMP280;23314;51.114;6.900;2023-10-13T07:34:19;100585.13;;;20.45
37452;BMP280;23314;51.114;6.900;2023-10-13T07:36:57;100578.78;;;20.48
37452;BMP280;23314;51.114;6.900;2023-10-13T07:39:30;100575.09;;;20.51
37452;BMP280;23314;51.114;6.900;2023-10-13T07:42:05;100579.81;;;20.56
37452;BMP280;23314;51.114;6.900;2023-10-13T07:44:35;100576.19;;;20.65
37452;BMP280;23314;51.114;6.900;2023-10-13T07:47:02;100578.00;;;20.74
37452;BMP280;23314;51.114;6.900;2023-10-13T07:49:37;100570.16;;;20.81
37452;BMP280;23314;51.114;6.900;2023-10-13T07:52:06;100568.69;;;20.86
37452;BMP280;23314;51.114;6.900;2023-10-13T07:54:47;100565.75;;;20.90
37452;BMP280;23314;51.114;6.900;2023-10-13T07:57:15;100562.59;;;20.91
37452;BMP280;23314;51.114;6.900;2023-10-13T07:59:42;100561.38;;;20.92
37452;BMP280;23314;51.114;6.900;2023-10-13T08:02:17;100555.72;;;20.96
37452;BMP280;23314;51.114;6.900;2023-10-13T08:05:02;100559.88;;;20.97
37452;BMP280;23314;51.114;6.900;2023-10-13T08:07:30;100559.88;;;20.97
37452;BMP280;23314;51.114;6.900;2023-10-13T08:09:56;100551.75;;;20.97
37452;BMP280;23314;51.114;6.900;2023-10-13T08:12:24;100552.72;;;20.94
37452;BMP280;23314;51.114;6.900;2023-10-13T08:14:50;100543.38;;;20.95
37452;BMP280;23314;51.114;6.900;2023-10-13T08:17:34;100545.34;;;20.94
37452;BMP280;23314;51.114;6.900;2023-10-13T08:20:00;100529.34;;;20.96
37452;BMP280;23314;51.114;6.900;2023-10-13T08:22:36;100539.69;;;20.98
37452;BMP280;23314;51.114;6.900;2023-10-13T08:25:03;100537.25;;;21.00
37452;BMP280;23314;51.114;6.900;2023-10-13T08:28:10;100543.19;;;21.04
37452;BMP280;23314;51.114;6.900;2023-10-13T08:30:54;100530.16;;;21.08
37452;BMP280;23314;51.114;6.900;2023-10-13T08:33:19;100537.34;;;21.17
37452;BMP280;23314;51.114;6.900;2023-10-13T08:35:49;100539.13;;;21.31
37452;BMP280;23314;51.114;6.900;2023-10-13T08:38:30;100535.75;;;21.48
37452;BMP280;23314;51.114;6.900;2023-10-13T08:41:08;100536.50;;;21.60
37452;BMP280;23314;51.114;6.900;2023-10-13T08:43:50;100531.38;;;21.73
37452;BMP280;23314;51.114;6.900;2023-10-13T08:46:17;100532.63;;;21.89
37452;BMP280;23314;51.114;6.900;2023-10-13T08:48:57;100530.69;;;22.07
37452;BMP280;23314;51.114;6.900;2023-10-13T08:51:41;100524.03;;;22.25
37452;BMP280;23314;51.114;6.900;2023-10-13T08:54:14;100531.19;;;22.39
37452;BMP280;23314;51.114;6.900;2023-10-13T08:57:00;100521.28;;;22.53
37452;BMP280;23314;51.114;6.900;2023-10-13T08:59:45;100511.13;;;22.70
37452;BMP280;23314;51.114;6.900;2023-10-13T09:02:23;100512.28;;;22.98
37452;BMP280;23314;51.114;6.900;2023-10-13T09:05:24;100506.47;;;23.24
37452;BMP280;23314;51.114;6.900;2023-10-13T09:08:07;100504.66;;;23.43
37452;BMP280;23314;51.114;6.900;2023-10-13T09:10:41;100501.88;;;23.55
37452;BMP280;23314;51.114;6.900;2023-10-13T09:13:35;100496.91;;;23.59
37452;BMP280;23314;51.114;6.900;2023-10-13T09:16:12;100499.09;;;23.60
37452;BMP280;23314;51.114;6.900;2023-10-13T09:19:07;100487.97;;;23.64
37452;BMP280;23314;51.114;6.900;2023-10-13T09:21:39;100483.59;;;23.80
37452;BMP280;23314;51.114;6.900;2023-10-13T09:24:12;100475.34;;;23.91
37452;BMP280;23314;51.114;6.900;2023-10-13T09:26:48;100472.59;;;23.97
37452;BMP280;23314;51.114;6.900;2023-10-13T09:29:19;100467.06;;;24.03
37452;BMP280;23314;51.114;6.900;2023-10-13T09:31:46;100463.31;;;24.11
37452;BMP280;23314;51.114;6.900;2023-10-13T09:34:21;100461.16;;;24.29
37452;BMP280;23314;51.114;6.900;2023-10-13T09:36:48;100468.84;;;24.49
37452;BMP280;23314;51.114;6.900;2023-10-13T09:39:23;100453.09;;;24.61
37452;BMP280;23314;51.114;6.900;2023-10-13T09:41:56;100466.22;;;24.63
37452;BMP280;23314;51.114;6.900;2023-10-13T09:44:25;100447.66;;;24.61
37452;BMP280;23314;51.114;6.900;2023-10-13T09:46:52;100445.47;;;24.60
37452;BMP280;23314;51.114;6.900;2023-10-13T09:49:22;100446.72;;;24.59
37452;BMP280;23314;51.114;6.900;2023-10-13T09:52:11;100443.00;;;24.56
37452;BMP280;23314;51.114;6.900;2023-10-13T09:57:27;100434.31;;;24.58
37452;BMP280;23314;51.114;6.900;2023-10-13T10:00:09;100421.88;;;24.62
37452;BMP280;23314;51.114;6.900;2023-10-13T10:02:54;100425.50;;;24.71
37452;BMP280;23314;51.114;6.900;2023-10-13T10:05:26;100434.06;;;24.75
37452;BMP280;23314;51.114;6.900;2023-10-13T10:07:58;100429.97;;;24.87
37452;BMP280;23314;51.114;6.900;2023-10-13T10:10:37;100431.91;;;24.92
37452;BMP280;23314;51.114;6.900;2023-10-13T10:13:43;100438.97;;;25.01
37452;BMP280;23314;51.114;6.900;2023-10-13T10:16:14;100432.97;;;25.21
37452;BMP280;23314;51.114;6.900;2023-10-13T10:18:45;100431.97;;;25.38
37452;BMP280;23314;51.114;6.900;2023-10-13T10:21:10;100434.19;;;25.53
37452;BMP280;23314;51.114;6.900;2023-10-13T10:23:36;100436.13;;;25.71
37452;BMP280;23314;51.114;6.900;2023-10-13T10:26:15;100434.38;;;25.87
37452;BMP280;23314;51.114;6.900;2023-10-13T10:28:45;100440.06;;;26.03
37452;BMP280;23314;51.114;6.900;2023-10-13T10:31:11;100424.59;;;26.19
37452;BMP280;23314;51.114;6.900;2023-10-13T10:33:45;100431.97;;;26.24
37452;BMP280;23314;51.114;6.900;2023-10-13T10:36:11;100415.63;;;26.31
37452;BMP280;23314;51.114;6.900;2023-10-13T10:38:52;100416.63;;;26.34
37452;BMP280;23314;51.114;6.900;2023-10-13T10:41:25;100411.88;;;26.35
37452;BMP280;23314;51.114;6.900;2023-10-13T10:43:54;100410.47;;;26.41
37452;BMP280;23314;51.114;6.900;2023-10-13T10:46:29;100401.63;;;26.48
37452;BMP280;23314;51.114;6.900;2023-10-13T10:49:05;100397.28;;;26.53
37452;BMP280;23314;51.114;6.900;2023-10-13T10:51:32;100405.69;;;26.55
37452;BMP280;23314;51.114;6.900;2023-10-13T10:54:01;100397.19;;;26.59
37452;BMP280;23314;51.114;6.900;2023-10-13T10:56:39;100401.84;;;26.50
37452;BMP280;23314;51.114;6.900;2023-10-13T10:59:06;100397.84;;;26.52
37452;BMP280;23314;51.114;6.900;2023-10-13T11:01:43;100394.13;;;26.62
37452;BMP280;23314;51.114;6.900;2023-10-13T11:04:18;100383.03;;;26.81
37452;BMP280;23314;51.114;6.900;2023-10-13T11:06:53;100375.72;;;27.05
37452;BMP280;23314;51.114;6.900;2023-10-13T11:09:27;100371.56;;;27.33
37452;BMP280;23314;51.114;6.900;2023-10-13T11:11:56;100360.94;;;27.50
37452;BMP280;23314;51.114;6.900;2023-10-13T11:14:29;100363.28;;;27.54
37452;BMP280;23314;51.114;6.900;2023-10-13T11:16:58;100366.03;;;27.54
37452;BMP280;23314;51.114;6.900;2023-10-13T11:19:34;100349.81;;;27.64
37452;BMP280;23314;51.114;6.900;2023-10-13T11:22:10;100343.66;;;27.71
37452;BMP280;23314;51.114;6.900;2023-10-13T11:24:41;100352.56;;;27.64
37452;BMP280;23314;51.114;6.900;2023-10-13T11:27:16;100345.97;;;27.59
37452;BMP280;23314;51.114;6.900;2023-10-13T11:30:07;100352.56;;;27.64
37452;BMP280;23314;51.114;6.900;2023-10-13T11:32:37;100339.06;;;27.66
37452;BMP280;23314;51.114;6.900;2023-10-13T11:35:08;100342.41;;;27.72
37452;BMP280;23314;51.114;6.900;2023-10-13T11:37:54;100334.75;;;27.78
37452;BMP280;23314;51.114;6.900;2023-10-13T11:40:29;100333.13;;;27.83
37452;BMP280;23314;51.114;6.900;2023-10-13T11:43:36;100320.72;;;27.89
37452;BMP280;23314;51.114;6.900;2023-10-13T11:46:11;100321.78;;;27.86
37452;BMP280;23314;51.114;6.900;2023-10-13T11:48:37;100321.28;;;27.88
37452;BMP280;23314;51.114;6.900;2023-10-13T11:51:04;100309.22;;;27.91
37452;BMP280;23314;51.114;6.900;2023-10-13T11:53:33;100304.84;;;27.95
37452;BMP280;23314;51.114;6.900;2023-10-13T11:55:59;100307.78;;;27.98
37452;BMP280;23314;51.114;6.900;2023-10-13T11:58:25;100305.03;;;27.98
37452;BMP280;23314;51.114;6.900;2023-10-13T12:00:50;100304.28;;;27.97
37452;BMP280;23314;51.114;6.900;2023-10-13T12:03:16;100301.72;;;27.91
37452;BMP280;23314;51.114;6.900;2023-10-13T12:05:59;100290.19;;;27.85
37452;BMP280;23314;51.114;6.900;2023-10-13T12:08:45;100298.94;;;27.76
37452;BMP280;23314;51.114;6.900;2023-10-13T12:11:18;100310.19;;;27.65
37452;BMP280;23314;51.114;6.900;2023-10-13T12:13:56;100294.09;;;27.53
37452;BMP280;23314;51.114;6.900;2023-10-13T12:16:22;100294.06;;;27.46
37452;BMP280;23314;51.114;6.900;2023-10-13T12:18:47;100310.09;;;27.41
37452;BMP280;23314;51.114;6.900;2023-10-13T12:21:19;100294.34;;;27.34
37452;BMP280;23314;51.114;6.900;2023-10-13T12:23:46;100297.22;;;27.29
37452;BMP280;23314;51.114;6.900;2023-10-13T12:26:12;100289.00;;;27.21
37452;BMP280;23314;51.114;6.900;2023-10-13T12:28:45;100298.00;;;27.08
37452;BMP280;23314;51.114;6.900;2023-10-13T12:31:17;100291.94;;;27.02
37452;BMP280;23314;51.114;6.900;2023-10-13T12:33:43;100295.75;;;26.99
37452;BMP280;23314;51.114;6.900;2023-10-13T12:36:08;100286.09;;;26.98
37452;BMP280;23314;51.114;6.900;2023-10-13T12:38:55;100292.81;;;26.97
37452;BMP280;23314;51.114;6.900;2023-10-13T12:41:33;100278.31;;;26.89
37452;BMP280;23314;51.114;6.900;2023-10-13T12:44:17;100287.09;;;26.87
37452;BMP280;23314;51.114;6.900;2023-10-13T12:47:14;100278.28;;;26.81
37452;BMP280;23314;51.114;6.900;2023-10-13T12:49:58;100272.09;;;26.80
37452;BMP280;23314;51.114;6.900;2023-10-13T12:52:24;100272.81;;;26.81
37452;BMP280;23314;51.114;6.900;2023-10-13T12:54:57;100268.69;;;26.88
37452;BMP280;23314;51.114;6.900;2023-10-13T12:57:28;100270.91;;;26.97
37452;BMP280;23314;51.114;6.900;2023-10-13T12:59:54;100268.97;;;27.05
37452;BMP280;23314;51.114;6.900;2023-10-13T13:02:25;100264.44;;;27.08
37452;BMP280;23314;51.114;6.900;2023-10-13T13:04:54;100276.25;;;27.02
37452;BMP280;23314;51.114;6.900;2023-10-13T13:07:23;100272.41;;;26.98
37452;BMP280;23314;51.114;6.900;2023-10-13T13:09:54;100270.91;;;26.97
37452;BMP280;23314;51.114;6.900;2023-10-13T13:12:24;100272.94;;;26.96
37452;BMP280;23314;51.114;6.900;2023-10-13T13:14:49;100273.47;;;26.95
37452;BMP280;23314;51.114;6.900;2023-10-13T13:17:20;100271.84;;;26.99
37452;BMP280;23314;51.114;6.900;2023-10-13T13:19:46;100277.72;;;27.03
37452;BMP280;23314;51.114;6.900;2023-10-13T13:22:11;100274.97;;;27.03
37452;BMP280;23314;51.114;6.900;2023-10-13T13:24:40;100268.03;;;27.02
37452;BMP280;23314;51.114;6.900;2023-10-13T13:27:14;100267.31;;;27.02
37452;BMP280;23314;51.114;6.900;2023-10-13T13:29:49;100266.31;;;26.92
37452;BMP280;23314;51.114;6.900;2023-10-13T13:32:14;100268.41;;;26.78
37452;BMP280;23314;51.114;6.900;2023-10-13T13:34:50;100279.44;;;26.64
37452;BMP280;23314;51.114;6.900;2023-10-13T13:37:34;100278.03;;;26.50
37452;BMP280;23314;51.114;6.900;2023-10-13T13:39:59;100268.06;;;26.39
37452;BMP280;23314;51.114;6.900;2023-10-13T13:42:39;100269.03;;;26.28
37452;BMP280;23314;51.114;6.900;2023-10-13T13:45:11;100259.28;;;26.20
37452;BMP280;23314;51.114;6.900;2023-10-13T13:47:37;100267.63;;;26.14
37452;BMP280;23314;51.114;6.900;2023-10-13T13:50:02;100262.59;;;26.05
37452;BMP280;23314;51.114;6.900;2023-10-13T13:52:39;100255.28;;;26.00
37452;BMP280;23314;51.114;6.900;2023-10-13T13:55:11;100257.41;;;25.93
37452;BMP280;23314;51.114;6.900;2023-10-13T13:57:43;100253.31;;;25.87
37452;BMP280;23314;51.114;6.900;2023-10-13T14:00:10;100258.56;;;25.85
37452;BMP280;23314;51.114;6.900;2023-10-13T14:02:41;100250.16;;;25.83
37452;BMP280;23314;51.114;6.900;2023-10-13T14:05:15;100252.88;;;25.83
37452;BMP280;23314;51.114;6.900;2023-10-13T14:07:44;100254.88;;;25.82
37452;BMP280;23314;51.114;6.900;2023-10-13T14:10:19;100253.38;;;25.81
37452;BMP280;23314;51.114;6.900;2023-10-13T14:12:57;100250.50;;;25.79
37452;BMP280;23314;51.114;6.900;2023-10-13T14:15:33;100249.88;;;25.73
37452;BMP280;23314;51.114;6.900;2023-10-13T14:18:06;100252.69;;;25.67
37452;BMP280;23314;51.114;6.900;2023-10-13T14:20:32;100254.47;;;25.65
37452;BMP280;23314;51.114;6.900;2023-10-13T14:23:02;100253.00;;;25.64
37452;BMP280;23314;51.114;6.900;2023-10-13T14:25:32;100260.56;;;25.57
37452;BMP280;23314;51.114;6.900;2023-10-13T14:28:06;100256.47;;;25.51
37452;BMP280;23314;51.114;6.900;2023-10-13T14:30:33;100262.75;;;25.46
37452;BMP280;23314;51.114;6.900;2023-10-13T14:32:58;100259.44;;;25.39
37452;BMP280;23314;51.114;6.900;2023-10-13T14:35:25;100257.53;;;25.34
37452;BMP280;23314;51.114;6.900;2023-10-13T14:37:53;100246.94;;;25.31
37452;BMP280;23314;51.114;6.900;2023-10-13T14:40:19;100238.34;;;25.27